Time;durP1;ratioP1;P1;durP2;ratioP2;P2;SDS_P1;SDS_P2;PMS_P1;PMS_P2;Temp;Humidity;BMP_temperature;BMP_pressure;BME280_temperature;BME280_humidity;BME280_pressure;Samples;Min_cycle;Max_cycle;Signal;HPM_P1;HPM_P2
2022/11/16 00:01:34;;;;;;;0.80;0.80;;;9.30;99.90;;;;;;5054819;28;20425;-75
2022/11/16 00:04:03;;;;;;;0.82;0.82;;;9.30;99.90;;;;;;5078219;28;20437;-74
2022/11/16 00:06:30;;;;;;;0.65;0.65;;;9.30;99.90;;;;;;5066076;28;20451;-74
2022/11/16 00:11:45;;;;;;;1.13;1.03;;;9.30;99.90;;;;;;5067040;28;20464;-73
2022/11/16 00:14:12;;;;;;;1.77;1.23;;;9.30;99.90;;;;;;5058063;28;20477;-73
2022/11/16 00:16:39;;;;;;;3.10;1.10;;;9.30;99.90;;;;;;5062477;28;20447;-72
2022/11/16 00:19:06;;;;;;;0.77;0.77;;;9.20;99.90;;;;;;5051425;28;20425;-72
2022/11/16 00:21:33;;;;;;;0.50;0.50;;;9.20;99.90;;;;;;5060356;28;20447;-72
2022/11/16 00:24:01;;;;;;;1.23;0.60;;;9.20;99.90;;;;;;5061780;28;20425;-72
2022/11/16 00:26:28;;;;;;;0.80;0.80;;;9.20;99.90;;;;;;5050406;28;20439;-72
2022/11/16 00:28:55;;;;;;;1.33;0.65;;;9.20;99.90;;;;;;5057032;28;20423;-72
2022/11/16 00:31:22;;;;;;;0.20;0.20;;;9.20;99.90;;;;;;5056183;28;20428;-73
2022/11/16 00:33:49;;;;;;;0.60;0.60;;;9.20;99.90;;;;;;5064168;28;20437;-74
2022/11/16 00:36:16;;;;;;;0.95;0.47;;;9.20;99.90;;;;;;5058573;28;20423;-73
2022/11/16 00:38:43;;;;;;;5.45;1.02;;;9.20;99.90;;;;;;5054924;28;20435;-73
2022/11/16 00:41:10;;;;;;;1.08;0.63;;;9.20;99.90;;;;;;5054229;28;20996;-73
2022/11/16 00:43:37;;;;;;;0.65;0.65;;;9.20;99.90;;;;;;5066869;28;20466;-73
2022/11/16 00:46:04;;;;;;;0.32;0.32;;;9.20;99.90;;;;;;5066866;28;20435;-73
2022/11/16 00:48:31;;;;;;;1.20;0.93;;;9.20;99.90;;;;;;5061541;28;20915;-73
2022/11/16 00:50:58;;;;;;;1.23;1.13;;;9.20;99.90;;;;;;5064643;28;20485;-73
2022/11/16 00:53:25;;;;;;;1.88;0.77;;;9.20;99.90;;;;;;5055550;28;20428;-73
2022/11/16 00:55:51;;;;;;;1.25;1.17;;;9.20;99.90;;;;;;5063848;28;20434;-73
2022/11/16 00:58:18;;;;;;;0.80;0.80;;;9.20;99.90;;;;;;5082728;28;20494;-73
2022/11/16 01:00:45;;;;;;;0.73;0.73;;;9.20;99.90;;;;;;5069881;28;20427;-74
2022/11/16 01:03:12;;;;;;;1.05;0.73;;;9.20;99.90;;;;;;5062819;28;20464;-73
2022/11/16 01:05:39;;;;;;;0.80;0.80;;;9.20;99.90;;;;;;5064323;28;20442;-73
2022/11/16 01:08:06;;;;;;;0.80;0.80;;;9.30;99.90;;;;;;5058174;28;20491;-74
2022/11/16 01:10:33;;;;;;;0.60;0.60;;;9.30;99.90;;;;;;5066444;28;20467;-74
2022/11/16 01:13:00;;;;;;;0.40;0.40;;;9.30;99.90;;;;;;5058127;28;20429;-74
2022/11/16 01:15:26;;;;;;;0.57;0.57;;;9.30;99.90;;;;;;5066583;28;21145;-74
2022/11/16 01:17:55;;;;;;;0.50;0.50;;;9.40;99.90;;;;;;5068465;28;20515;-74
2022/11/16 01:20:25;;;;;;;0.57;0.57;;;9.40;99.90;;;;;;5059898;28;20427;-74
2022/11/16 01:22:52;;;;;;;0.70;0.70;;;9.40;99.90;;;;;;5053632;28;20431;-74
2022/11/16 01:25:19;;;;;;;0.50;0.50;;;9.40;99.90;;;;;;5051108;28;20435;-75
2022/11/16 01:27:46;;;;;;;1.65;0.90;;;9.40;99.90;;;;;;5055454;28;20427;-74
2022/11/16 01:30:14;;;;;;;0.73;0.73;;;9.40;99.90;;;;;;5058311;28;20436;-75
2022/11/16 01:32:41;;;;;;;0.77;0.70;;;9.40;99.90;;;;;;5060667;28;20431;-75
2022/11/16 01:35:13;;;;;;;0.60;0.60;;;9.40;99.90;;;;;;5054966;28;20800;-75
2022/11/16 01:37:39;;;;;;;0.65;0.65;;;9.40;99.90;;;;;;5052864;28;20771;-75
2022/11/16 01:40:07;;;;;;;2.15;0.68;;;9.40;99.90;;;;;;5064235;28;20424;-75
2022/11/16 01:42:33;;;;;;;0.57;0.47;;;9.40;99.90;;;;;;5062715;28;21190;-74
2022/11/16 01:45:21;;;;;;;0.50;0.50;;;9.40;99.90;;;;;;5067128;28;20511;-75
2022/11/16 01:47:57;;;;;;;0.45;0.45;;;9.40;99.90;;;;;;5064739;28;20440;-75
2022/11/16 01:50:24;;;;;;;3.90;0.70;;;9.40;99.90;;;;;;5063127;28;20980;-74
2022/11/16 01:52:58;;;;;;;0.88;0.88;;;9.40;99.90;;;;;;5064318;28;20446;-74
2022/11/16 01:55:27;;;;;;;1.20;0.70;;;9.40;99.90;;;;;;5057132;28;20433;-74
2022/11/16 01:57:55;;;;;;;0.77;0.63;;;9.40;99.90;;;;;;5065687;28;20444;-74
2022/11/16 02:00:22;;;;;;;0.70;0.40;;;9.40;99.90;;;;;;5059492;28;20440;-75
2022/11/16 02:02:49;;;;;;;0.43;0.43;;;9.40;99.90;;;;;;5067656;28;20440;-76
2022/11/16 02:05:20;;;;;;;0.38;0.38;;;9.40;99.90;;;;;;5057123;28;20928;-76
2022/11/16 02:11:30;;;;;;;0.50;0.50;;;9.50;99.90;;;;;;5070371;28;20941;-75
2022/11/16 02:13:57;;;;;;;0.57;0.57;;;9.50;99.90;;;;;;5063247;28;21267;-75
2022/11/16 02:16:42;;;;;;;0.60;0.60;;;9.50;99.90;;;;;;5060214;28;20434;-75
2022/11/16 02:19:27;;;;;;;1.02;0.63;;;9.50;99.90;;;;;;5053812;28;20435;-76
2022/11/16 02:22:25;;;;;;;0.30;0.30;;;9.50;99.90;;;;;;5066790;28;20425;-76
2022/11/16 02:24:58;;;;;;;1.20;0.30;;;9.50;99.90;;;;;;5065149;28;20427;-75
2022/11/16 02:28:04;;;;;;;0.50;0.50;;;9.50;99.90;;;;;;5069427;28;20788;-74
2022/11/16 02:30:31;;;;;;;0.45;0.45;;;9.60;99.90;;;;;;5059524;28;20766;-75
2022/11/16 02:33:08;;;;;;;0.70;0.65;;;9.60;99.90;;;;;;5068807;28;20489;-74
2022/11/16 02:35:44;;;;;;;0.27;0.27;;;9.60;99.90;;;;;;5070318;28;20439;-76
2022/11/16 02:38:16;;;;;;;0.57;0.57;;;9.60;99.90;;;;;;5073438;28;20492;-74
2022/11/16 02:40:48;;;;;;;0.75;0.52;;;9.60;99.90;;;;;;5062764;28;20439;-75
2022/11/16 02:43:25;;;;;;;0.50;0.50;;;9.60;99.90;;;;;;5056476;28;20444;-75
2022/11/16 02:45:57;;;;;;;0.63;0.63;;;9.60;99.90;;;;;;5065454;28;20437;-76
2022/11/16 02:48:29;;;;;;;0.50;0.30;;;9.60;99.90;;;;;;5063850;28;20906;-75
2022/11/16 02:50:57;;;;;;;0.85;0.73;;;9.60;99.90;;;;;;5070004;28;20480;-76
2022/11/16 02:53:24;;;;;;;0.73;0.60;;;9.60;99.90;;;;;;5067910;28;20430;-75
2022/11/16 02:55:51;;;;;;;0.40;0.40;;;9.60;99.90;;;;;;5067153;28;20928;-75
2022/11/16 02:58:24;;;;;;;0.93;0.70;;;9.60;99.90;;;;;;5058162;28;20435;-76
2022/11/16 03:00:54;;;;;;;0.63;0.63;;;9.60;99.90;;;;;;5061926;28;20428;-77
2022/11/16 03:03:30;;;;;;;0.60;0.60;;;9.60;99.90;;;;;;5067374;28;20795;-76
2022/11/16 03:06:15;;;;;;;0.32;0.32;;;9.60;99.90;;;;;;5067395;28;20941;-76
2022/11/16 03:08:55;;;;;;;0.60;0.60;;;9.60;99.90;;;;;;5066037;28;20430;-75
2022/11/16 03:14:13;;;;;;;0.60;0.60;;;9.60;99.90;;;;;;5069910;28;20980;-75
2022/11/16 03:16:43;;;;;;;0.40;0.40;;;9.60;99.90;;;;;;5061166;28;20435;-76
2022/11/16 03:19:13;;;;;;;0.75;0.75;;;9.60;99.90;;;;;;5056621;28;21175;-75
2022/11/16 03:21:47;;;;;;;1.20;0.73;;;9.60;99.90;;;;;;5068474;28;20431;-75
2022/11/16 03:24:15;;;;;;;0.43;0.43;;;9.60;99.90;;;;;;5068305;28;20485;-75
2022/11/16 03:27:03;;;;;;;1.30;0.50;;;9.60;99.90;;;;;;5070073;28;20790;-75
2022/11/16 03:29:45;;;;;;;0.40;0.40;;;9.60;99.90;;;;;;5059749;28;20459;-74
2022/11/16 03:32:19;;;;;;;3.50;1.20;;;9.70;99.90;;;;;;5067641;28;20423;-75
2022/11/16 03:35:20;;;;;;;0.60;0.60;;;9.70;99.90;;;;;;5060604;28;20531;-74
2022/11/16 03:37:49;;;;;;;0.68;0.68;;;9.70;99.90;;;;;;5060042;28;20439;-74
2022/11/16 03:40:18;;;;;;;1.00;0.97;;;9.70;99.90;;;;;;5057909;28;20434;-74
2022/11/16 03:42:48;;;;;;;0.80;0.80;;;9.60;99.90;;;;;;5066871;28;20431;-74
2022/11/16 03:45:17;;;;;;;0.98;0.73;;;9.60;99.90;;;;;;5063423;28;20945;-75
2022/11/16 03:47:44;;;;;;;1.00;1.00;;;9.60;99.90;;;;;;5062365;28;20425;-74
2022/11/16 03:50:11;;;;;;;2.00;1.15;;;9.60;99.90;;;;;;5065166;28;20427;-75
2022/11/16 03:52:38;;;;;;;0.93;0.93;;;9.60;99.90;;;;;;5067965;28;20435;-75
2022/11/16 03:55:05;;;;;;;0.93;0.80;;;9.60;99.90;;;;;;5064940;28;20431;-75
2022/11/16 03:57:31;;;;;;;0.52;0.52;;;9.60;99.90;;;;;;5063485;28;20434;-75
2022/11/16 03:59:58;;;;;;;0.82;0.75;;;9.60;99.90;;;;;;5061933;28;20426;-75
2022/11/16 04:02:25;;;;;;;0.50;0.50;;;9.60;99.90;;;;;;5071277;28;20431;-75
2022/11/16 04:24:25;;;;;;;0.60;0.60;;;9.60;99.90;;;;;;5068729;28;20462;-75
2022/11/16 04:29:41;;;;;;;1.60;0.88;;;9.60;99.90;;;;;;5051865;28;20425;-75
2022/11/16 04:37:47;;;;;;;0.75;0.75;;;9.60;99.90;;;;;;5071411;28;20449;-75
2022/11/16 04:40:19;;;;;;;0.80;0.80;;;9.60;99.90;;;;;;5071542;28;20427;-75
2022/11/16 04:42:58;;;;;;;0.40;0.40;;;9.60;99.90;;;;;;5070947;28;20424;-75
2022/11/16 04:48:14;;;;;;;1.37;1.27;;;9.60;99.90;;;;;;5064755;28;20913;-75
2022/11/16 04:50:43;;;;;;;2.40;1.38;;;9.70;99.90;;;;;;5060301;28;20442;-74
2022/11/16 04:53:10;;;;;;;2.17;1.58;;;9.70;99.90;;;;;;5067758;28;20426;-74
2022/11/16 04:55:37;;;;;;;0.55;0.55;;;9.60;99.90;;;;;;5070138;28;20436;-74
2022/11/16 04:58:05;;;;;;;2.50;1.42;;;9.60;99.90;;;;;;5060954;28;20431;-75
2022/11/16 05:00:32;;;;;;;0.90;0.90;;;9.70;99.90;;;;;;5078035;28;20431;-74
2022/11/16 05:02:59;;;;;;;0.55;0.55;;;9.60;99.90;;;;;;5069749;28;20437;-74
2022/11/16 05:05:27;;;;;;;1.15;0.80;;;9.60;99.90;;;;;;5054334;28;20788;-74
2022/11/16 05:07:54;;;;;;;0.80;0.80;;;9.60;99.90;;;;;;5060196;28;20597;-74
2022/11/16 05:10:21;;;;;;;1.45;1.35;;;9.60;99.90;;;;;;5063593;28;20914;-74
2022/11/16 05:12:48;;;;;;;0.88;0.88;;;9.60;99.90;;;;;;5064817;28;20434;-74
2022/11/16 05:15:16;;;;;;;0.95;0.85;;;9.60;99.90;;;;;;5070028;28;20933;-75
2022/11/16 05:17:43;;;;;;;3.72;0.88;;;9.60;99.90;;;;;;5068882;28;20423;-74
2022/11/16 05:22:57;;;;;;;1.00;0.80;;;9.50;99.90;;;;;;5076603;28;20837;-74
2022/11/16 05:25:24;;;;;;;1.03;1.03;;;9.50;99.90;;;;;;5060547;28;20841;-74
2022/11/16 05:27:51;;;;;;;1.05;1.05;;;9.50;99.90;;;;;;5054913;28;20441;-75
2022/11/16 05:30:18;;;;;;;0.70;0.70;;;9.50;99.90;;;;;;5060927;28;20433;-74
2022/11/16 05:32:45;;;;;;;0.95;0.95;;;9.50;99.90;;;;;;5074300;28;20489;-74
2022/11/16 05:35:12;;;;;;;2.60;1.17;;;9.50;99.90;;;;;;5054399;28;20441;-74
2022/11/16 05:37:38;;;;;;;1.40;1.20;;;9.50;99.90;;;;;;5074093;28;20431;-74
2022/11/16 05:40:06;;;;;;;1.00;1.00;;;9.50;99.90;;;;;;5053865;28;20448;-75
2022/11/16 05:42:33;;;;;;;1.20;1.20;;;9.50;99.90;;;;;;5066236;28;20427;-74
2022/11/16 05:45:00;;;;;;;0.65;0.65;;;9.50;99.90;;;;;;5069238;28;20438;-74
2022/11/16 05:47:26;;;;;;;2.28;1.15;;;9.50;99.90;;;;;;5056941;28;20463;-74
2022/11/16 05:49:53;;;;;;;1.25;1.15;;;9.50;99.90;;;;;;5064368;28;20503;-74
2022/11/16 05:52:20;;;;;;;1.70;0.70;;;9.50;99.90;;;;;;5062387;28;20424;-73
2022/11/16 05:54:47;;;;;;;1.75;1.27;;;9.50;99.90;;;;;;5067494;28;20890;-74
2022/11/16 05:57:14;;;;;;;1.70;0.88;;;9.50;99.90;;;;;;5058735;28;20778;-74
2022/11/16 05:59:41;;;;;;;2.28;1.17;;;9.50;99.90;;;;;;5079088;28;20835;-74
2022/11/16 06:02:07;;;;;;;1.00;0.80;;;9.50;99.90;;;;;;5068569;28;20435;-74
2022/11/16 06:04:34;;;;;;;1.13;0.75;;;9.50;99.90;;;;;;5064508;28;20425;-74
2022/11/16 06:07:01;;;;;;;1.10;0.90;;;9.50;99.90;;;;;;5056829;28;20791;-74
2022/11/16 06:09:28;;;;;;;0.90;0.90;;;9.50;99.90;;;;;;5063113;28;20466;-74
2022/11/16 06:11:54;;;;;;;1.10;1.10;;;9.50;99.90;;;;;;5053426;28;20433;-73
2022/11/16 06:14:21;;;;;;;1.50;1.20;;;9.50;99.90;;;;;;5064938;28;20454;-73
2022/11/16 06:16:48;;;;;;;1.13;1.10;;;9.50;99.90;;;;;;5058021;28;20434;-74
2022/11/16 06:19:15;;;;;;;1.45;1.17;;;9.50;99.90;;;;;;5077520;28;20439;-74
2022/11/16 06:21:41;;;;;;;1.00;0.98;;;9.50;99.90;;;;;;5075546;28;20437;-74
2022/11/16 06:24:08;;;;;;;0.80;0.80;;;9.50;99.90;;;;;;5063796;28;20435;-73
2022/11/16 06:26:36;;;;;;;0.63;0.63;;;9.40;99.90;;;;;;5065575;28;20428;-74
2022/11/16 06:29:03;;;;;;;0.82;0.82;;;9.40;99.90;;;;;;5065764;28;20428;-74
2022/11/16 06:31:30;;;;;;;1.23;1.13;;;9.40;99.90;;;;;;5063007;28;20486;-74
2022/11/16 06:33:57;;;;;;;1.30;1.20;;;9.30;99.90;;;;;;5068278;28;20912;-74
2022/11/16 06:36:24;;;;;;;1.10;0.98;;;9.30;99.90;;;;;;5088814;28;20975;-74
2022/11/16 06:38:50;;;;;;;0.77;0.77;;;9.20;99.90;;;;;;5059547;28;20443;-73
2022/11/16 06:41:17;;;;;;;0.90;0.90;;;9.20;99.90;;;;;;5060456;28;20451;-73
2022/11/16 06:43:44;;;;;;;0.70;0.70;;;9.10;99.90;;;;;;5071804;28;20431;-74
2022/11/16 06:46:11;;;;;;;0.70;0.70;;;9.00;99.90;;;;;;5066488;28;20490;-73
2022/11/16 06:48:39;;;;;;;1.30;1.08;;;9.00;99.90;;;;;;5070934;28;20428;-74
2022/11/16 06:51:06;;;;;;;1.00;0.85;;;8.90;99.90;;;;;;5054766;28;20428;-74
2022/11/16 06:53:34;;;;;;;1.30;1.17;;;8.80;99.90;;;;;;5063951;28;20958;-74
2022/11/16 06:56:02;;;;;;;1.27;1.17;;;8.70;99.90;;;;;;5062401;28;20779;-74
2022/11/16 06:58:30;;;;;;;0.93;0.93;;;8.60;99.90;;;;;;5063394;28;20438;-74
2022/11/16 07:01:07;;;;;;;1.67;0.60;;;8.50;99.90;;;;;;5069828;28;20510;-74
2022/11/16 07:03:34;;;;;;;2.13;1.17;;;8.30;99.90;;;;;;5056406;28;20443;-74
2022/11/16 07:06:11;;;;;;;1.20;1.15;;;8.30;99.90;;;;;;5061830;28;20437;-74
2022/11/16 07:08:38;;;;;;;0.82;0.82;;;8.30;99.90;;;;;;5068060;28;20469;-74
2022/11/16 07:11:07;;;;;;;0.63;0.60;;;8.30;99.90;;;;;;5067219;28;20430;-74
2022/11/16 07:13:35;;;;;;;1.00;0.90;;;8.20;99.90;;;;;;5071989;28;20775;-73
2022/11/16 07:16:04;;;;;;;0.95;0.95;;;8.30;99.90;;;;;;5070728;28;20427;-74
2022/11/16 07:18:33;;;;;;;0.68;0.68;;;8.40;99.90;;;;;;5064513;28;20534;-74
2022/11/16 07:21:15;;;;;;;0.80;0.75;;;8.40;99.90;;;;;;5071119;28;21033;-74
2022/11/16 07:23:43;;;;;;;1.10;0.63;;;8.50;99.90;;;;;;5069362;28;20462;-74
2022/11/16 07:26:10;;;;;;;3.40;1.00;;;8.70;99.90;;;;;;5065738;28;20437;-74
2022/11/16 07:28:37;;;;;;;1.00;0.87;;;8.90;99.90;;;;;;5066951;28;20435;-74
2022/11/16 07:31:12;;;;;;;1.30;0.60;;;9.10;99.90;;;;;;5065775;28;20420;-74
2022/11/16 07:33:39;;;;;;;0.70;0.70;;;9.30;99.90;;;;;;5068592;28;20468;-74
2022/11/16 07:36:12;;;;;;;0.90;0.57;;;9.50;99.90;;;;;;5065864;28;21117;-74
2022/11/16 07:38:39;;;;;;;0.32;0.32;;;9.50;99.90;;;;;;5064465;28;20472;-74
2022/11/16 07:41:14;;;;;;;0.77;0.77;;;9.50;99.90;;;;;;5070801;28;20732;-75
2022/11/16 07:43:41;;;;;;;0.57;0.52;;;9.50;99.90;;;;;;5065445;28;20433;-74
2022/11/16 07:46:13;;;;;;;0.60;0.60;;;9.60;99.90;;;;;;5071577;28;20423;-74
2022/11/16 07:49:00;;;;;;;3.80;1.00;;;9.70;99.90;;;;;;5077474;28;20473;-74
2022/11/16 07:51:26;;;;;;;0.90;0.90;;;9.70;99.90;;;;;;5066789;28;20461;-74
2022/11/16 07:53:54;;;;;;;1.07;1.07;;;9.80;99.90;;;;;;5067009;28;20423;-74
2022/11/16 07:56:21;;;;;;;0.77;0.75;;;9.80;99.90;;;;;;5065381;28;20493;-74
2022/11/16 07:58:48;;;;;;;0.80;0.80;;;10.00;99.90;;;;;;5073829;28;20434;-74
2022/11/16 08:01:16;;;;;;;1.10;1.00;;;10.20;99.90;;;;;;5076445;28;20434;-74
2022/11/16 08:03:44;;;;;;;1.80;1.20;;;10.10;99.90;;;;;;5071514;28;20462;-74
2022/11/16 08:06:13;;;;;;;1.05;0.95;;;10.10;99.90;;;;;;5058742;28;20914;-74
2022/11/16 08:08:40;;;;;;;1.10;1.10;;;10.20;99.90;;;;;;5067785;28;20510;-73
2022/11/16 08:11:09;;;;;;;1.17;0.80;;;10.40;99.90;;;;;;5072549;28;20421;-73
2022/11/16 08:13:38;;;;;;;1.85;0.73;;;10.40;99.90;;;;;;5059386;28;20433;-73
2022/11/16 08:16:11;;;;;;;1.17;0.77;;;10.50;99.90;;;;;;5060984;28;20835;-73
2022/11/16 08:18:40;;;;;;;0.60;0.60;;;10.50;99.90;;;;;;5075447;28;20444;-73
2022/11/16 08:21:10;;;;;;;0.50;0.50;;;10.40;99.90;;;;;;5067267;28;20921;-73
2022/11/16 08:23:39;;;;;;;0.70;0.70;;;10.30;99.90;;;;;;5061422;28;20427;-72
2022/11/16 08:26:13;;;;;;;0.37;0.37;;;10.20;99.90;;;;;;5061145;28;21187;-73
2022/11/16 08:28:42;;;;;;;0.70;0.70;;;10.00;99.90;;;;;;5065598;28;20433;-75
2022/11/16 08:31:16;;;;;;;0.17;0.17;;;10.00;99.90;;;;;;5065695;28;20425;-75
2022/11/16 08:33:43;;;;;;;1.80;0.40;;;10.00;99.90;;;;;;5059964;28;20519;-75
2022/11/16 08:36:15;;;;;;;0.20;0.20;;;10.00;99.90;;;;;;5066872;28;20458;-75
2022/11/16 08:38:44;;;;;;;0.40;0.40;;;10.10;99.90;;;;;;5071549;28;20936;-75
2022/11/16 08:41:11;;;;;;;0.25;0.25;;;10.30;99.90;;;;;;5061248;28;20939;-72
2022/11/16 08:43:39;;;;;;;0.20;0.20;;;10.40;99.90;;;;;;5058225;28;20431;-73
2022/11/16 08:46:07;;;;;;;0.40;0.40;;;10.40;99.90;;;;;;5069958;28;20449;-76
2022/11/16 08:48:34;;;;;;;0.10;0.10;;;10.30;99.90;;;;;;5058087;28;20439;-73
2022/11/16 08:51:06;;;;;;;0.30;0.30;;;10.10;99.90;;;;;;5053056;28;20429;-74
2022/11/16 08:53:46;;;;;;;0.20;0.20;;;10.00;99.90;;;;;;5060112;28;20448;-75
2022/11/16 08:56:14;;;;;;;0.20;0.20;;;9.80;99.90;;;;;;5063351;28;20926;-75
2022/11/16 08:58:43;;;;;;;0.30;0.30;;;9.80;99.90;;;;;;5068773;28;20432;-75
2022/11/16 09:01:21;;;;;;;0.45;0.40;;;9.90;99.90;;;;;;5070241;28;20932;-75
2022/11/16 09:03:48;;;;;;;0.20;0.20;;;10.00;99.90;;;;;;5062247;28;20421;-73
2022/11/16 09:06:15;;;;;;;0.10;0.10;;;10.20;99.90;;;;;;5057635;28;20906;-73
2022/11/16 09:08:43;;;;;;;0.20;0.20;;;10.40;99.90;;;;;;5068518;28;20567;-73
2022/11/16 09:11:14;;;;;;;0.20;0.20;;;10.60;99.90;;;;;;5069997;28;20488;-73
2022/11/16 09:13:42;;;;;;;0.60;0.60;;;10.70;99.90;;;;;;5061856;28;20425;-73
2022/11/16 09:16:10;;;;;;;1.90;0.30;;;10.80;99.90;;;;;;5053072;28;20441;-73
2022/11/16 09:18:37;;;;;;;0.25;0.25;;;10.90;99.90;;;;;;5054318;28;20443;-73
2022/11/16 09:21:03;;;;;;;0.70;0.50;;;10.80;99.90;;;;;;5065061;28;20457;-72
2022/11/16 09:23:30;;;;;;;0.25;0.25;;;10.80;99.90;;;;;;5051001;28;20441;-72
2022/11/16 09:26:01;;;;;;;0.37;0.20;;;10.70;99.90;;;;;;5059631;28;21245;-72
2022/11/16 09:28:28;;;;;;;0.22;0.22;;;10.60;99.90;;;;;;5068948;28;20782;-71
2022/11/16 09:31:03;;;;;;;0.32;0.32;;;10.70;99.90;;;;;;5065075;28;20427;-72
2022/11/16 09:33:31;;;;;;;0.17;0.17;;;10.80;99.90;;;;;;5055892;28;20828;-72
2022/11/16 09:36:05;;;;;;;0.30;0.30;;;11.10;99.90;;;;;;5056299;28;20429;-72
2022/11/16 09:38:44;;;;;;;1.80;0.40;;;11.50;99.90;;;;;;5065230;28;20506;-72
2022/11/16 09:41:59;;;;;;;0.30;0.30;;;11.70;99.90;;;;;;5058006;28;20425;-72
2022/11/16 09:45:03;;;;;;;0.40;0.40;;;11.90;99.90;;;;;;5063939;28;20453;-72
2022/11/16 09:47:40;;;;;;;0.47;0.47;;;12.00;99.90;;;;;;5068534;28;20831;-71
2022/11/16 09:50:21;;;;;;;0.77;0.22;;;12.00;99.90;;;;;;5064124;28;20429;-72
2022/11/16 09:52:51;;;;;;;1.00;0.60;;;12.10;99.90;;;;;;5061537;28;20455;-72
2022/11/16 09:55:32;;;;;;;0.40;0.40;;;12.20;99.90;;;;;;5068042;28;20427;-72
2022/11/16 09:58:03;;;;;;;0.20;0.20;;;12.30;99.90;;;;;;5065542;28;20902;-72
2022/11/16 10:00:31;;;;;;;0.20;0.20;;;12.60;99.90;;;;;;5060690;28;20916;-72
2022/11/16 10:03:26;;;;;;;0.70;0.70;;;12.80;99.90;;;;;;5054694;28;20985;-72
2022/11/16 10:06:05;;;;;;;0.52;0.52;;;13.00;99.90;;;;;;5055780;28;20431;-72
2022/11/16 10:08:42;;;;;;;0.25;0.25;;;13.30;99.90;;;;;;5059971;28;20941;-71
2022/11/16 10:11:21;;;;;;;0.40;0.40;;;13.50;99.90;;;;;;5062934;28;20420;-72
2022/11/16 10:13:47;;;;;;;0.15;0.15;;;13.50;99.90;;;;;;5062437;28;20432;-72
2022/11/16 10:16:44;;;;;;;0.23;0.23;;;13.40;99.90;;;;;;5064477;28;20431;-72
2022/11/16 10:19:36;;;;;;;0.30;0.30;;;13.30;99.90;;;;;;5057948;28;21218;-71
2022/11/16 10:22:15;;;;;;;1.00;0.22;;;13.20;99.90;;;;;;5055285;28;20499;-69
2022/11/16 10:24:58;;;;;;;0.40;0.40;;;13.10;99.90;;;;;;5064377;28;20481;-72
2022/11/16 10:27:41;;;;;;;0.30;0.30;;;12.90;99.90;;;;;;5060705;28;20431;-70
2022/11/16 10:30:14;;;;;;;0.60;0.30;;;12.90;99.90;;;;;;5055506;28;20437;-72
2022/11/16 10:33:02;;;;;;;0.43;0.30;;;13.00;99.90;;;;;;5065234;28;20427;-72
2022/11/16 10:35:41;;;;;;;0.30;0.30;;;13.10;99.90;;;;;;5066108;28;21171;-72
2022/11/16 10:38:17;;;;;;;0.50;0.35;;;13.10;99.90;;;;;;5064867;28;20775;-72
2022/11/16 10:40:51;;;;;;;0.40;0.40;;;13.00;99.90;;;;;;5060656;28;20435;-72
2022/11/16 10:43:29;;;;;;;0.45;0.45;;;12.80;99.90;;;;;;5063623;28;20442;-72
2022/11/16 10:46:11;;;;;;;0.20;0.20;;;12.60;99.90;;;;;;5062155;28;20510;-72
2022/11/16 10:49:03;;;;;;;0.40;0.30;;;12.70;99.90;;;;;;5067099;28;20423;-71
2022/11/16 10:51:30;;;;;;;1.40;0.55;;;12.60;99.90;;;;;;5062909;28;21149;-71
2022/11/16 10:53:56;;;;;;;0.70;0.50;;;12.60;99.90;;;;;;5065956;28;20425;-73
2022/11/16 10:56:36;;;;;;;1.00;0.30;;;12.50;99.90;;;;;;5066095;28;20514;-72
2022/11/16 10:59:05;;;;;;;1.40;0.40;;;12.50;99.90;;;;;;5067862;28;20433;-71
2022/11/16 11:01:51;;;;;;;0.30;0.30;;;12.40;99.90;;;;;;5056550;28;20437;-72
2022/11/16 11:04:20;;;;;;;4.80;0.50;;;12.40;99.90;;;;;;5053624;28;20435;-72
2022/11/16 11:06:50;;;;;;;0.47;0.47;;;12.50;99.90;;;;;;5057182;28;20436;-72
2022/11/16 11:09:29;;;;;;;0.50;0.50;;;13.00;99.90;;;;;;5057402;28;20479;-72
2022/11/16 11:14:59;;;;;;;0.60;0.60;;;13.70;99.90;;;;;;5057805;28;20442;-72
2022/11/16 11:17:27;;;;;;;0.50;0.50;;;13.70;99.90;;;;;;5057703;28;20441;-72
2022/11/16 11:20:03;;;;;;;0.30;0.30;;;13.90;99.90;;;;;;5058452;28;20437;-72
2022/11/16 11:22:40;;;;;;;0.20;0.20;;;14.10;99.90;;;;;;5064870;28;20427;-70
2022/11/16 11:25:24;;;;;;;1.95;0.45;;;13.70;99.90;;;;;;5065524;28;20427;-70
2022/11/16 11:28:20;;;;;;;0.30;0.30;;;13.80;99.90;;;;;;5059326;28;20451;-70
2022/11/16 11:31:10;;;;;;;0.50;0.50;;;13.70;99.90;;;;;;5068371;28;20432;-71
2022/11/16 11:33:48;;;;;;;0.20;0.20;;;13.50;99.90;;;;;;5066663;28;20427;-70
2022/11/16 11:36:20;;;;;;;0.30;0.30;;;13.00;99.90;;;;;;5052894;28;20433;-71
2022/11/16 11:39:05;;;;;;;0.20;0.20;;;12.70;99.90;;;;;;5059318;28;20770;-71
2022/11/16 11:41:43;;;;;;;0.65;0.50;;;12.30;99.90;;;;;;5069135;28;20427;-71
2022/11/16 11:44:12;;;;;;;0.50;0.50;;;12.20;99.90;;;;;;5058171;28;20423;-71
2022/11/16 11:46:54;;;;;;;0.30;0.30;;;12.20;99.90;;;;;;5068299;28;21176;-71
2022/11/16 11:49:48;;;;;;;1.35;0.50;;;12.20;99.90;;;;;;5054832;28;20427;-71
2022/11/16 11:52:37;;;;;;;0.20;0.20;;;12.20;99.90;;;;;;5063232;28;20427;-71
2022/11/16 11:55:07;;;;;;;1.90;0.40;;;12.10;99.90;;;;;;5056350;28;20485;-71
2022/11/16 11:57:41;;;;;;;0.50;0.40;;;12.00;99.90;;;;;;5066897;28;20434;-71
2022/11/16 12:00:11;;;;;;;0.30;0.30;;;11.80;99.90;;;;;;5056399;28;21025;-71
2022/11/16 12:02:41;;;;;;;0.20;0.20;;;11.80;99.90;;;;;;5057640;28;20500;-71
2022/11/16 12:05:19;;;;;;;0.30;0.30;;;11.90;99.90;;;;;;5057408;28;20526;-71
2022/11/16 12:07:46;;;;;;;0.20;0.20;;;12.20;99.90;;;;;;5055109;28;20436;-70
2022/11/16 12:10:50;;;;;;;0.20;0.20;;;12.60;99.90;;;;;;5060037;28;20504;-71
2022/11/16 12:13:20;;;;;;;0.43;0.28;;;13.40;99.90;;;;;;5049332;28;20436;-71
2022/11/16 12:16:05;;;;;;;0.30;0.30;;;14.20;99.90;;;;;;5060361;28;20813;-72
2022/11/16 12:18:40;;;;;;;0.30;0.30;;;14.70;99.90;;;;;;5063092;28;20436;-72
2022/11/16 12:21:30;;;;;;;0.22;0.22;;;14.60;99.90;;;;;;5056562;28;21078;-71
2022/11/16 12:24:12;;;;;;;1.30;0.22;;;14.00;99.90;;;;;;5047453;28;20950;-71
2022/11/16 12:27:06;;;;;;;0.20;0.20;;;13.60;99.90;;;;;;5061790;28;20448;-71
2022/11/16 12:29:46;;;;;;;0.38;0.38;;;13.20;99.90;;;;;;5061714;28;20455;-71
2022/11/16 12:32:29;;;;;;;0.30;0.30;;;12.90;99.90;;;;;;5070199;28;20428;-72
2022/11/16 12:35:02;;;;;;;0.22;0.22;;;12.80;99.90;;;;;;5053686;28;20440;-71
2022/11/16 12:37:57;;;;;;;0.23;0.23;;;13.10;99.90;;;;;;5060910;28;20788;-71
2022/11/16 12:40:39;;;;;;;0.40;0.40;;;13.70;99.90;;;;;;5055768;28;20973;-72
2022/11/16 12:43:05;;;;;;;0.70;0.70;;;14.30;99.90;;;;;;5056591;28;20486;-71
2022/11/16 12:45:38;;;;;;;0.30;0.30;;;14.60;99.90;;;;;;5055830;28;20433;-72
2022/11/16 12:48:19;;;;;;;0.20;0.20;;;14.80;99.90;;;;;;5067753;28;20431;-72
2022/11/16 12:50:55;;;;;;;0.13;0.13;;;15.00;99.90;;;;;;5064186;28;20436;-72
2022/11/16 12:53:33;;;;;;;0.28;0.28;;;15.10;99.90;;;;;;5060012;28;20439;-72
2022/11/16 12:56:20;;;;;;;1.20;0.30;;;14.70;99.90;;;;;;5058333;28;20530;-68
2022/11/16 12:59:11;;;;;;;0.30;0.30;;;14.00;99.90;;;;;;5057603;28;20441;-69
2022/11/16 13:02:07;;;;;;;0.50;0.50;;;13.70;99.90;;;;;;5063722;28;20467;-68
2022/11/16 13:04:39;;;;;;;0.52;0.43;;;13.50;99.90;;;;;;5055121;28;20433;-68
2022/11/16 13:07:25;;;;;;;1.00;0.30;;;13.50;99.90;;;;;;5066543;28;20476;-68
2022/11/16 13:10:01;;;;;;;8.90;0.30;;;13.40;99.90;;;;;;5070692;28;20458;-68
2022/11/16 13:12:29;;;;;;;3.20;0.30;;;13.30;99.90;;;;;;5060952;28;20427;-68
2022/11/16 13:14:59;;;;;;;0.20;0.20;;;13.20;99.90;;;;;;5065206;28;20855;-68
2022/11/16 13:17:33;;;;;;;0.30;0.30;;;12.80;99.90;;;;;;5060056;28;20437;-69
2022/11/16 13:20:20;;;;;;;1.40;0.38;;;13.00;99.90;;;;;;5067221;28;20683;-68
2022/11/16 13:23:07;;;;;;;0.20;0.20;;;13.50;99.90;;;;;;5057053;28;20428;-68
2022/11/16 13:25:37;;;;;;;0.10;0.10;;;14.00;99.90;;;;;;5066815;28;20973;-68
2022/11/16 13:28:25;;;;;;;0.20;0.20;;;14.20;99.90;;;;;;5068852;28;20440;-68
2022/11/16 13:31:05;;;;;;;0.22;0.22;;;14.00;99.90;;;;;;5070553;28;20446;-67
2022/11/16 13:33:46;;;;;;;0.20;0.20;;;13.70;99.90;;;;;;5060702;28;20929;-67
2022/11/16 13:36:42;;;;;;;0.10;0.10;;;13.30;99.90;;;;;;5073732;28;20433;-68
2022/11/16 13:39:11;;;;;;;0.50;0.30;;;13.10;99.90;;;;;;5055865;28;20484;-67
2022/11/16 13:41:50;;;;;;;0.20;0.20;;;13.20;99.90;;;;;;5065063;28;20422;-67
2022/11/16 13:44:19;;;;;;;0.82;0.40;;;13.20;99.90;;;;;;5056837;28;20444;-68
2022/11/16 13:46:53;;;;;;;0.20;0.20;;;13.20;99.90;;;;;;5075296;28;20476;-67
2022/11/16 13:49:46;;;;;;;0.35;0.30;;;13.40;99.90;;;;;;5062593;28;20429;-67
2022/11/16 13:52:13;;;;;;;2.20;0.30;;;13.40;99.90;;;;;;5059432;28;20442;-67
2022/11/16 13:54:52;;;;;;;0.30;0.30;;;13.30;99.90;;;;;;5062757;28;20432;-67
2022/11/16 13:57:28;;;;;;;0.15;0.15;;;13.20;99.90;;;;;;5061025;28;20932;-68
2022/11/16 14:00:01;;;;;;;0.30;0.30;;;12.90;99.90;;;;;;5064165;28;20426;-68
2022/11/16 14:02:38;;;;;;;0.20;0.20;;;12.60;99.90;;;;;;5057085;28;20439;-67
2022/11/16 14:05:11;;;;;;;0.25;0.25;;;12.40;99.90;;;;;;5066625;28;20459;-67
2022/11/16 14:07:51;;;;;;;0.28;0.28;;;12.20;99.90;;;;;;5065985;28;20437;-68